Latest Weather Observations for Toolara

IDQ60801

Issued at 6:05 pm EST Saturday 2 August 2014 (issued every 30 minutes, with the page automatically refreshed every 10 minutes)

About weather observations | Map of weather stations | Latest weather observations for QLD | Other Formats
Station Details ID: 040555 Name: TOOLARA (KELLY) Lat: -25.97 Lon: 152.86 Height: 143.0 m
Data from the previous 72 hours. | See also: Recent months at Toolara
Date/Time
EST
Temp
°C
App
Temp
°C
Dew
Point
Rel
Hum
%
Delta-T
°C
Wind Press
QNH
hPa
Press
MSL
hPa
Rain
since 9 am
mm
Dir
 
Spd
km/h
Gust
km/h
Spd
kts
Gust
kts
02/06:00pm 13.4 8.9 2.3 47 4.9 - 15 20 8 11 - - -
02/05:30pm 14.0 9.9 2.3 45 5.2 - 13 19 7 10 - - -
02/05:00pm 15.0 - 1.5 40 5.9 - - - - - - - -
02/04:30pm 16.1 - 0.3 34 6.8 - - - - - - - -
02/04:00pm 17.5 - -0.7 29 7.8 - - - - - - - -
02/03:30pm 18.9 - -0.5 27 8.5 - - - - - - - -
02/03:00pm 20.6 - -1.8 22 9.7 - - - - - - - 0.0
02/02:30pm 20.9 - -1.6 22 9.8 - - - - - - - -
02/02:00pm 20.4 - -2.0 22 9.6 - - - - - - - -
02/01:30pm 20.2 - -1.6 23 9.4 - - - - - - - -
02/01:00pm 20.0 - -1.2 24 9.2 - - - - - - - -
02/12:30pm 19.3 - -0.7 26 8.7 - - - - - - - -
02/12:00pm 18.7 - -1.2 26 8.5 - - - - - - - -
02/11:30am 18.4 - 0.1 29 8.0 - - - - - - - -
02/11:00am 17.8 - 0.0 30 7.8 - - - - - - - -
02/10:30am 16.9 - 0.1 32 7.3 - - - - - - - -
02/10:00am 16.3 - 0.4 34 6.9 - - - - - - - -
02/09:30am 15.5 11.2 1.3 38 6.2 - 13 17 7 9 - - -
02/09:00am 14.5 - 1.4 41 5.7 - - - - - - - 0.0
02/08:30am 13.6 - 1.6 44 5.2 - - - - - - - -
02/08:00am 12.7 - 1.4 46 4.9 - - - - - - - -
02/07:30am 11.8 - 1.7 50 4.3 - - - - - - - -
02/07:00am 11.9 - 1.8 50 4.3 - - - - - - - -
02/06:30am 12.2 - 2.4 51 4.3 - - - - - - - -
02/06:00am 12.8 8.8 2.6 50 4.5 - 13 17 7 9 - - -
02/05:30am 12.9 - 3.6 53 4.2 - - - - - - - -
02/05:00am 13.5 - 4.1 53 4.3 - - - - - - - -
02/04:30am 14.0 - 4.9 54 4.3 - - - - - - - -
02/04:00am 14.3 - 5.1 54 4.3 - - - - - - - -
02/03:30am 14.8 - 5.6 54 4.4 - - - - - - - -
02/03:00am 14.8 - 6.6 58 4.0 - - - - - - - 0.0
02/02:30am 15.1 - 8.6 65 3.3 - - - - - - - -
02/02:00am 15.3 - 10.9 75 2.4 - - - - - - - -
02/01:30am 15.6 - 15.3 98 0.2 - - - - - - - -
02/01:00am 15.6 - 15.4 99 0.1 - - - - - - - -
02/12:30am 15.8 - 15.3 97 0.3 - - - - - - - -
02/12:00am 15.9 - 15.3 96 0.3 - - - - - - - -
 
Date/Time
EST
Temp
°C
App
Temp
°C
Dew
Point
Rel
Hum
%
Delta-T
°C
Wind Press
QNH
hPa
Press
MSL
hPa
Rain
since 9 am
mm
Dir
 
Spd
km/h
Gust
km/h
Spd
kts
Gust
kts
01/11:30pm 16.9 - 15.9 94 0.6 - - - - - - - -
01/11:00pm 17.1 - 16.0 93 0.7 - - - - - - - -
01/10:30pm 17.0 - 15.3 90 1.0 - - - - - - - -
01/10:00pm 17.2 - 15.4 89 1.1 - - - - - - - -
01/09:30pm 17.3 - 15.5 89 1.1 - - - - - - - -
01/09:00pm 17.2 - 14.8 86 1.4 - - - - - - - 0.0
01/08:30pm 17.1 - 14.4 84 1.6 - - - - - - - -
01/08:00pm 17.4 - 14.3 82 1.8 - - - - - - - -
01/07:30pm 17.8 - 14.1 79 2.1 - - - - - - - -
01/07:00pm 18.3 - 14.0 76 2.5 - - - - - - - -
01/06:30pm 18.7 - 14.0 74 2.7 - - - - - - - -
01/06:00pm 19.4 - 13.1 67 3.6 - - - - - - - -
01/05:30pm 20.5 - 12.2 59 4.7 - - - - - - - -
01/05:00pm 21.7 - 12.5 56 5.2 - - - - - - - -
01/04:30pm 22.5 - 12.4 52 5.8 - - - - - - - -
01/04:00pm 24.7 - 8.6 36 8.7 - - - - - - - -
01/03:30pm 24.8 - 9.5 38 8.4 - - - - - - - -
01/03:00pm 25.1 - 10.6 40 8.1 - - - - - - - 0.0
01/02:30pm 25.3 - 11.1 41 8.0 - - - - - - - -
01/02:00pm 24.9 - 11.1 42 7.8 - - - - - - - -
01/01:30pm 25.1 - 13.0 47 7.1 - - - - - - - -
01/01:00pm 24.6 - 13.2 49 6.7 - - - - - - - -
01/12:30pm 24.2 - 13.7 52 6.2 - - - - - - - -
01/12:00pm 23.3 - 14.3 57 5.3 - - - - - - - -
01/11:30am 22.6 - 15.0 62 4.5 - - - - - - - -
01/11:00am 21.8 - 15.6 68 3.7 - - - - - - - -
01/10:30am 20.8 - 15.8 73 3.0 - - - - - - - -
01/10:00am 20.0 - 16.2 79 2.3 - - - - - - - -
01/09:30am 18.9 - 15.9 83 1.8 - - - - - - - -
01/09:00am 17.8 - 15.6 87 1.3 - - - - - - - 0.0
01/08:30am 17.2 - 15.5 90 1.0 - - - - - - - -
01/08:00am 17.7 - 17.2 97 0.3 - - - - - - - -
01/07:30am 15.5 - 15.3 99 0.1 - - - - - - - -
01/07:00am 15.1 - 14.9 99 0.1 - - - - - - - -
01/06:30am 15.2 - 15.0 99 0.1 - - - - - - - -
01/06:00am 15.6 - 15.4 99 0.1 - - - - - - - -
01/05:30am 15.4 - 15.2 99 0.1 - - - - - - - -
01/05:00am 15.5 - 15.3 99 0.1 - - - - - - - -
01/04:30am 15.8 - 15.6 99 0.1 - - - - - - - -
01/04:00am 16.0 - 15.7 98 0.2 - - - - - - - -
01/03:30am 16.0 - 15.5 97 0.3 - - - - - - - -
01/03:00am 15.8 - 15.3 97 0.3 - - - - - - - 0.0
01/02:30am 16.0 - 14.9 93 0.6 - - - - - - - -
01/02:00am 16.1 - 14.8 92 0.8 - - - - - - - -
01/01:30am 16.3 - 15.0 92 0.8 - - - - - - - -
01/01:00am 15.4 - 13.9 91 0.9 - - - - - - - -
01/12:30am 15.7 - 14.1 90 0.9 - - - - - - - -
01/12:00am 15.6 - 14.1 91 0.9 - - - - - - - -
 
Date/Time
EST
Temp
°C
App
Temp
°C
Dew
Point
Rel
Hum
%
Delta-T
°C
Wind Press
QNH
hPa
Press
MSL
hPa
Rain
since 9 am
mm
Dir
 
Spd
km/h
Gust
km/h
Spd
kts
Gust
kts
31/11:30pm 15.5 - 14.5 94 0.6 - - - - - - - -
31/11:00pm 16.0 - 14.5 91 0.9 - - - - - - - -
31/10:30pm 16.1 - 14.8 92 0.8 - - - - - - - -
31/10:00pm 15.8 - 14.3 91 0.9 - - - - - - - -
31/09:30pm 16.1 - 14.1 88 1.1 - - - - - - - -
31/09:00pm 16.4 - 14.1 86 1.3 - - - - - - - 0.0
31/08:30pm 16.6 - 13.7 83 1.6 - - - - - - - -
31/08:00pm 16.8 - 13.3 80 2.0 - - - - - - - -
31/07:30pm 17.0 - 12.9 77 2.3 - - - - - - - -
31/07:00pm 17.3 - 12.8 75 2.5 - - - - - - - -
31/06:30pm 17.6 - 12.3 71 2.9 - - - - - - - -
31/06:00pm 18.2 - 12.4 69 3.2 - - - - - - - -
31/05:30pm 18.6 - 12.1 66 3.6 - - - - - - - -
31/05:00pm 19.4 - 11.9 62 4.2 - - - - - - - -
31/04:30pm 20.2 - 11.4 57 4.9 - - - - - - - -
31/04:00pm 21.2 - 10.4 50 5.9 - - - - - - - -
31/03:30pm 21.8 - 8.0 41 7.3 - - - - - - - -
31/03:00pm 23.6 - 8.1 37 8.3 - - - - - - - 0.0
31/02:30pm 24.0 - 8.0 36 8.5 - - - - - - - -
31/02:00pm 23.8 - 7.8 36 8.5 - - - - - - - -
31/01:30pm 23.5 - 7.2 35 8.5 - - - - - - - -
31/01:00pm 23.3 - 8.2 38 8.0 - - - - - - - -
31/12:30pm 23.1 - 10.2 44 7.1 - - - - - - - -
31/12:00pm 23.2 - 12.5 51 6.1 - - - - - - - -
31/11:30am 21.7 - 13.9 61 4.6 - - - - - - - -
31/11:00am 21.0 - 14.4 66 3.9 - - - - - - - -
31/10:30am 21.3 - 15.2 68 3.6 - - - - - - - -
31/10:00am 19.2 - 14.0 72 3.0 - - - - - - - -
31/09:30am 18.1 - 13.8 76 2.5 - - - - - - - -
31/09:00am 16.8 - 12.7 77 2.3 - - - - - - - 0.0
31/08:30am 16.3 - 12.1 76 2.3 - - - - - - - -
31/08:00am 16.1 - 12.5 79 2.0 - - - - - - - -
31/07:30am 15.7 - 12.6 82 1.7 - - - - - - - -
31/07:00am 15.4 - 12.5 83 1.6 - - - - - - - -
31/06:30am 14.9 - 12.0 83 1.6 - - - - - - - -
31/06:00am 14.4 - 11.6 83 1.5 - - - - - - - -
31/05:30am 14.3 - 11.8 85 1.4 - - - - - - - -
31/05:00am 14.3 - 12.3 88 1.1 - - - - - - - -
31/04:30am 14.1 - 13.0 93 0.6 - - - - - - - -
31/04:00am 12.8 - 11.2 90 0.8 - - - - - - - -
31/03:30am 14.6 - 12.6 88 1.1 - - - - - - - -
31/03:00am 15.3 - 13.0 86 1.3 - - - - - - - 0.0
31/02:30am 15.3 - 13.0 86 1.3 - - - - - - - -
31/02:00am 14.9 - 13.4 91 0.8 - - - - - - - -
31/01:30am 14.3 - 12.7 90 0.9 - - - - - - - -
31/01:00am 13.9 - 11.6 86 1.2 - - - - - - - -
31/12:30am 15.5 - 11.9 79 2.0 - - - - - - - -
31/12:00am 16.0 - 12.0 77 2.2 - - - - - - - -
 
Date/Time
EST
Temp
°C
App
Temp
°C
Dew
Point
Rel
Hum
%
Delta-T
°C
Wind Press
QNH
hPa
Press
MSL
hPa
Rain
since 9 am
mm
Dir
 
Spd
km/h
Gust
km/h
Spd
kts
Gust
kts
30/11:30pm 16.0 - 12.2 78 2.1 - - - - - - - -
30/11:00pm 15.8 - 12.4 80 1.9 - - - - - - - -
30/10:30pm 15.6 - 12.7 83 1.6 - - - - - - - -
30/10:00pm 14.4 - 11.9 85 1.4 - - - - - - - -
30/09:30pm 14.6 - 11.6 82 1.6 - - - - - - - -
30/09:00pm 15.2 - 12.3 83 1.6 - - - - - - - 0.0
30/08:30pm 15.2 - 11.8 80 1.8 - - - - - - - -
30/08:00pm 15.7 - 11.9 78 2.1 - - - - - - - -
30/07:30pm 16.2 - 11.8 75 2.4 - - - - - - - -
30/07:00pm 16.5 - 11.0 70 3.0 - - - - - - - -
30/06:30pm 16.6 - 9.8 64 3.6 - - - - - - - -

Other Formats:

Comma delimited format used in spreadsheet applications
http://www.bom.gov.au/fwo/IDQ60801/IDQ60801.94558.axf

JavaScript Object Notation format (JSON) in row-major order
http://www.bom.gov.au/fwo/IDQ60801/IDQ60801.94558.json